createdAt,value
2023-05-12T00:02:24.450Z,101388.66
2023-05-12T00:04:51.633Z,101379.88
2023-05-12T00:07:18.958Z,101381.63
2023-05-12T00:09:46.044Z,101383.41
2023-05-12T00:12:13.348Z,101381.63
2023-05-12T00:14:40.496Z,101383.38
2023-05-12T00:17:07.732Z,101382.53
2023-05-12T00:19:35.964Z,101379.94
2023-05-12T00:22:03.329Z,101389.69
2023-05-12T00:24:30.649Z,101372.94
2023-05-12T00:26:57.748Z,101379.13
2023-05-12T00:29:24.749Z,101379.19
2023-05-12T00:31:51.796Z,101374.78
2023-05-12T00:34:18.869Z,101371.25
2023-05-12T00:36:45.854Z,101376.56
2023-05-12T00:39:13.057Z,101375.72
2023-05-12T00:41:40.190Z,101374.84
2023-05-12T00:44:07.553Z,101373.94
2023-05-12T00:46:34.667Z,101365.13
2023-05-12T00:49:02.597Z,101373.09
2023-05-12T00:51:29.917Z,101378.38
2023-05-12T00:53:58.451Z,101378.47
2023-05-12T00:56:25.926Z,101378.50
2023-05-12T00:58:52.947Z,101370.63
2023-05-12T01:01:20.457Z,101370.66
2023-05-12T01:03:47.662Z,101368.91
2023-05-12T01:06:36.233Z,101370.69
2023-05-12T01:09:03.880Z,101365.41
2023-05-12T01:11:30.944Z,101361.03
2023-05-12T01:13:58.020Z,101362.78
2023-05-12T01:16:36.689Z,101362.81
2023-05-12T01:19:10.628Z,101354.88
2023-05-12T01:21:38.050Z,101357.56
2023-05-12T01:24:09.298Z,101350.53
2023-05-12T01:26:36.481Z,101353.16
2023-05-12T01:29:05.137Z,101356.72
2023-05-12T01:31:33.092Z,101351.44
2023-05-12T01:34:00.897Z,101350.59
2023-05-12T01:36:27.968Z,101353.22
2023-05-12T01:38:55.810Z,101348.81
2023-05-12T01:41:22.776Z,101347.94
2023-05-12T01:43:50.947Z,101340.94
2023-05-12T01:46:18.133Z,101349.72
2023-05-12T01:48:45.357Z,101342.66
2023-05-12T01:51:12.380Z,101335.59
2023-05-12T01:53:39.432Z,101352.34
2023-05-12T01:56:06.660Z,101335.59
2023-05-12T01:58:33.697Z,101337.41
2023-05-12T02:01:00.702Z,101341.78
2023-05-12T02:03:27.773Z,101340.06
2023-05-12T02:05:54.844Z,101333.91
2023-05-12T02:08:21.864Z,101333.91
2023-05-12T02:10:48.829Z,101334.78
2023-05-12T02:13:15.805Z,101333.03
2023-05-12T02:15:42.739Z,101326.88
2023-05-12T02:18:09.861Z,101326.88
2023-05-12T02:20:36.873Z,101329.50
2023-05-12T02:23:03.906Z,101328.66
2023-05-12T02:25:30.960Z,101319.84
2023-05-12T02:27:57.989Z,101319.81
2023-05-12T02:30:25.058Z,101319.84
2023-05-12T02:32:52.159Z,101319.84
2023-05-12T02:35:19.259Z,101310.16
2023-05-12T02:37:46.305Z,101314.56
2023-05-12T02:40:13.854Z,101311.91
2023-05-12T02:42:41.362Z,101308.41
2023-05-12T02:45:10.254Z,101311.06
2023-05-12T02:47:37.481Z,101306.66
2023-05-12T02:50:05.677Z,101304.88
2023-05-12T02:52:32.821Z,101303.16
2023-05-12T02:54:59.866Z,101302.25
2023-05-12T02:57:32.911Z,101295.25
2023-05-12T03:00:01.971Z,101294.34
2023-05-12T03:02:29.093Z,101291.69
2023-05-12T03:04:56.216Z,101290.81
2023-05-12T03:07:23.383Z,101289.97
2023-05-12T03:09:50.730Z,101287.31
2023-05-12T03:12:17.826Z,101285.59
2023-05-12T03:14:45.004Z,101283.81
2023-05-12T03:17:12.330Z,101281.16
2023-05-12T03:19:39.665Z,101282.06
2023-05-12T03:22:09.578Z,101282.06
2023-05-12T03:24:36.811Z,101273.25
2023-05-12T03:27:04.052Z,101277.66
2023-05-12T03:29:31.453Z,101271.53
2023-05-12T03:31:58.513Z,101265.34
2023-05-12T03:34:25.727Z,101260.06
2023-05-12T03:36:52.778Z,101259.19
2023-05-12T03:39:19.887Z,101262.69
2023-05-12T03:41:46.986Z,101262.69
2023-05-12T03:44:14.252Z,101260.06
2023-05-12T03:46:41.744Z,101253.91
2023-05-12T03:49:09.918Z,101255.69
2023-05-12T03:51:37.072Z,101247.75
2023-05-12T03:54:04.427Z,101248.63
2023-05-12T03:56:31.736Z,101256.53
2023-05-12T03:58:58.746Z,101251.25
2023-05-12T04:01:26.002Z,101246.84
2023-05-12T04:03:53.348Z,101248.59
2023-05-12T04:06:20.722Z,101242.47
2023-05-12T04:08:47.861Z,101238.91
2023-05-12T04:11:14.934Z,101238.94
2023-05-12T04:13:41.981Z,101233.66
2023-05-12T04:16:09.929Z,101233.66
2023-05-12T04:18:37.052Z,101235.41
2023-05-12T04:21:04.338Z,101243.34
2023-05-12T04:23:31.572Z,101240.72
2023-05-12T04:25:59.433Z,101242.47
2023-05-12T04:28:26.714Z,101238.94
2023-05-12T04:30:53.802Z,101238.94
2023-05-12T04:33:20.846Z,101233.66
2023-05-12T04:35:47.876Z,101245.97
2023-05-12T04:38:14.919Z,101236.28
2023-05-12T04:40:42.143Z,101243.31
2023-05-12T04:43:09.214Z,101242.47
2023-05-12T04:45:36.393Z,101243.34
2023-05-12T04:48:03.597Z,101240.69
2023-05-12T04:50:30.668Z,101240.69
2023-05-12T04:52:57.788Z,101242.47
2023-05-12T04:55:25.021Z,101243.34
2023-05-12T04:57:52.011Z,101245.97
2023-05-12T05:00:19.427Z,101247.75
2023-05-12T05:02:47.451Z,101245.97
2023-05-12T05:05:14.588Z,101255.63
2023-05-12T05:07:41.641Z,101262.69
2023-05-12T05:10:09.319Z,101262.69
2023-05-12T05:12:36.435Z,101259.16
2023-05-12T05:15:03.681Z,101262.66
2023-05-12T05:17:30.735Z,101262.66
2023-05-12T05:19:59.643Z,101263.53
2023-05-12T05:22:27.477Z,101266.19
2023-05-12T05:24:54.884Z,101270.59
2023-05-12T05:27:22.007Z,101273.22
2023-05-12T05:29:49.457Z,101271.47
2023-05-12T05:32:16.785Z,101276.72
2023-05-12T05:34:43.943Z,101281.13
2023-05-12T05:37:11.056Z,101282.84
2023-05-12T05:39:40.373Z,101286.38
2023-05-12T05:42:07.672Z,101282.84
2023-05-12T05:44:34.772Z,101291.63
2023-05-12T05:47:03.094Z,101296.91
2023-05-12T05:49:30.528Z,101296.84
2023-05-12T05:51:57.614Z,101289.78
2023-05-12T05:54:25.486Z,101293.25
2023-05-12T05:56:52.578Z,101302.91
2023-05-12T05:59:19.670Z,101307.28
2023-05-12T06:01:46.882Z,101307.28
2023-05-12T06:04:13.957Z,101309.03
2023-05-12T06:06:41.028Z,101308.09
2023-05-12T06:09:09.704Z,101311.63
2023-05-12T06:11:36.760Z,101319.53
2023-05-12T06:14:03.832Z,101319.44
2023-05-12T06:16:31.005Z,101322.03
2023-05-12T06:18:58.160Z,101323.69
2023-05-12T06:21:25.366Z,101337.69
2023-05-12T06:23:52.586Z,101342.00
2023-05-12T06:26:19.679Z,101337.41
2023-05-12T06:28:46.711Z,101340.72
2023-05-12T06:31:13.866Z,101339.63
2023-05-12T06:33:40.953Z,101345.00
2023-05-12T06:36:08.849Z,101346.75
2023-05-12T06:38:35.894Z,101348.41
2023-05-12T06:41:02.951Z,101354.50
2023-05-12T06:43:29.966Z,101347.22
2023-05-12T06:45:57.220Z,101352.50
2023-05-12T06:48:24.565Z,101358.75
2023-05-12T06:50:51.819Z,101361.38
2023-05-12T06:53:18.946Z,101363.81
2023-05-12T06:55:47.104Z,101360.97
2023-05-12T06:58:14.166Z,101362.56
2023-05-12T07:00:41.208Z,101360.81
2023-05-12T07:03:10.342Z,101366.25
2023-05-12T07:05:37.717Z,101374.28
2023-05-12T07:08:05.526Z,101378.66
2023-05-12T07:10:33.308Z,101378.47
2023-05-12T07:13:00.424Z,101380.91
2023-05-12T07:15:27.519Z,101382.59
2023-05-12T07:17:55.868Z,101380.66
2023-05-12T07:20:23.162Z,101385.84
2023-05-12T07:22:52.184Z,101389.31
2023-05-12T07:25:19.473Z,101386.53
2023-05-12T07:27:46.939Z,101384.47
2023-05-12T07:30:14.386Z,101384.03
2023-05-12T07:32:41.496Z,101381.00
2023-05-12T07:35:09.357Z,101386.72
2023-05-12T07:37:36.389Z,101382.91
2023-05-12T07:40:04.673Z,101388.94
2023-05-12T07:42:31.794Z,101392.31
2023-05-12T07:44:58.802Z,101391.88
2023-05-12T07:47:26.305Z,101392.50
2023-05-12T07:49:53.361Z,101391.34
2023-05-12T07:52:20.396Z,101399.81
2023-05-12T07:54:47.443Z,101401.66
2023-05-12T07:57:14.431Z,101395.34
2023-05-12T07:59:41.495Z,101391.50
2023-05-12T08:02:09.077Z,101395.75
2023-05-12T08:04:36.118Z,101398.78
2023-05-12T08:07:03.428Z,101398.28
2023-05-12T08:09:30.523Z,101396.66
2023-05-12T08:11:57.500Z,101410.06
2023-05-12T08:14:25.751Z,101407.91
2023-05-12T08:16:52.920Z,101403.84
2023-05-12T08:19:22.944Z,101418.13
2023-05-12T08:21:49.903Z,101414.56
2023-05-12T08:24:17.081Z,101419.03
2023-05-12T08:26:44.164Z,101414.47
2023-05-12T08:29:11.457Z,101419.34
2023-05-12T08:31:38.997Z,101416.28
2023-05-12T08:34:10.268Z,101425.75
2023-05-12T08:36:39.808Z,101425.72
2023-05-12T08:39:10.174Z,101431.66
2023-05-12T08:42:09.636Z,101430.34
2023-05-12T08:44:40.897Z,101425.38
2023-05-12T08:47:09.496Z,101429.81
2023-05-12T08:49:38.820Z,101434.63
2023-05-12T08:52:07.798Z,101441.06
2023-05-12T08:54:48.594Z,101443.97
2023-05-12T08:57:23.567Z,101438.00
2023-05-12T08:59:53.747Z,101443.78
2023-05-12T09:02:23.625Z,101448.34
2023-05-12T09:04:52.392Z,101444.53
2023-05-12T09:07:20.076Z,101444.25
2023-05-12T09:09:52.759Z,101442.50
2023-05-12T09:12:21.368Z,101450.47
2023-05-12T09:15:00.344Z,101446.81
2023-05-12T09:17:27.594Z,101459.75
2023-05-12T09:19:54.663Z,101460.94
2023-05-12T09:22:33.634Z,101459.75
2023-05-12T09:25:00.864Z,101455.69
2023-05-12T09:27:29.326Z,101449.25
2023-05-12T09:29:59.625Z,101462.41
2023-05-12T09:32:45.362Z,101456.97
2023-05-12T09:35:12.688Z,101461.28
2023-05-12T09:37:40.486Z,101464.59
2023-05-12T09:40:11.482Z,101459.25
2023-05-12T09:42:38.930Z,101462.25
2023-05-12T09:45:11.582Z,101465.75
2023-05-12T09:47:40.670Z,101465.47
2023-05-12T09:50:08.918Z,101465.41
2023-05-12T09:52:39.975Z,101473.47
2023-05-12T09:55:12.778Z,101466.88
2023-05-12T09:57:42.949Z,101472.47
2023-05-12T10:00:33.209Z,101479.50
2023-05-12T10:03:18.537Z,101477.41
2023-05-12T10:05:54.571Z,101483.84
2023-05-12T10:08:56.458Z,101486.78
2023-05-12T10:11:23.821Z,101483.97
2023-05-12T10:13:52.124Z,101478.09
2023-05-12T10:16:19.474Z,101480.34
2023-05-12T10:18:47.620Z,101483.66
2023-05-12T10:21:16.089Z,101476.22
2023-05-12T10:23:45.758Z,101482.09
2023-05-12T10:26:13.900Z,101482.03
2023-05-12T10:28:42.927Z,101476.75
2023-05-12T10:31:11.377Z,101488.50
2023-05-12T10:33:38.405Z,101482.31
2023-05-12T10:36:16.091Z,101490.78
2023-05-12T10:38:43.515Z,101484.88
2023-05-12T10:41:11.023Z,101493.25
2023-05-12T10:43:49.593Z,101489.13
2023-05-12T10:46:21.897Z,101492.59
2023-05-12T10:49:04.379Z,101487.38
2023-05-12T10:51:34.991Z,101490.06
2023-05-12T10:54:08.172Z,101480.34
2023-05-12T10:56:41.066Z,101491.47
2023-05-12T10:59:20.379Z,101499.22
2023-05-12T11:02:07.052Z,101504.41
2023-05-12T11:04:53.382Z,101513.22
2023-05-12T11:07:24.612Z,101510.03
2023-05-12T11:09:57.849Z,101507.28
2023-05-12T11:12:35.456Z,101512.25
2023-05-12T11:15:05.775Z,101527.63
2023-05-12T11:17:33.181Z,101526.47
2023-05-12T11:20:01.631Z,101522.69
2023-05-12T11:22:29.458Z,101532.03
2023-05-12T11:24:56.542Z,101539.34
2023-05-12T11:27:24.001Z,101539.72
2023-05-12T11:30:03.027Z,101540.63
2023-05-12T11:32:30.532Z,101536.78
2023-05-12T11:35:13.003Z,101537.31
2023-05-12T11:37:41.721Z,101538.66
2023-05-12T11:40:21.720Z,101544.06
2023-05-12T11:42:52.861Z,101546.06
2023-05-12T11:45:29.894Z,101537.28
2023-05-12T11:48:13.978Z,101540.28
2023-05-12T11:50:46.895Z,101534.78
2023-05-12T11:53:17.531Z,101544.78
2023-05-12T11:55:57.397Z,101541.16
2023-05-12T11:58:30.651Z,101552.56
2023-05-12T12:01:10.120Z,101550.41
2023-05-12T12:03:49.703Z,101548.66
2023-05-12T12:06:17.936Z,101549.78
2023-05-12T12:08:57.369Z,101556.75
2023-05-12T12:11:30.568Z,101552.47
2023-05-12T12:13:58.009Z,101559.25
2023-05-12T12:16:27.111Z,101562.94
2023-05-12T12:18:54.581Z,101571.47
2023-05-12T12:21:23.525Z,101572.84
2023-05-12T12:23:52.024Z,101578.44
2023-05-12T12:26:21.080Z,101588.16
2023-05-12T12:28:48.669Z,101571.63
2023-05-12T12:31:16.825Z,101580.03
2023-05-12T12:33:43.934Z,101573.97
2023-05-12T12:36:11.033Z,101580.75
2023-05-12T12:38:38.113Z,101586.84
2023-05-12T12:41:06.401Z,101584.88
2023-05-12T12:43:33.553Z,101591.16
2023-05-12T12:46:00.559Z,101581.16
2023-05-12T12:48:28.952Z,101589.28
2023-05-12T12:50:56.358Z,101580.13
2023-05-12T12:53:23.690Z,101584.31
2023-05-12T12:55:51.176Z,101586.97
2023-05-12T12:58:18.299Z,101581.47
2023-05-12T13:00:45.571Z,101585.25
2023-05-12T13:03:12.741Z,101582.88
2023-05-12T13:05:39.771Z,101587.16
2023-05-12T13:08:07.474Z,101587.66
2023-05-12T13:10:35.376Z,101583.53
2023-05-12T13:13:02.365Z,101589.19
2023-05-12T13:15:32.191Z,101589.13
2023-05-12T13:17:59.588Z,101597.41
2023-05-12T13:20:26.825Z,101595.16
2023-05-12T13:22:53.970Z,101597.16
2023-05-12T13:25:21.284Z,101597.91
2023-05-12T13:27:48.754Z,101597.97
2023-05-12T13:30:15.867Z,101591.03
2023-05-12T13:32:43.078Z,101589.38
2023-05-12T13:35:10.602Z,101601.91
2023-05-12T13:37:37.840Z,101600.47
2023-05-12T13:40:05.487Z,101599.94
2023-05-12T13:42:32.590Z,101597.81
2023-05-12T13:44:59.781Z,101588.44
2023-05-12T13:47:27.508Z,101590.28
2023-05-12T13:49:56.557Z,101590.09
2023-05-12T13:52:23.625Z,101587.19
2023-05-12T13:54:51.226Z,101586.00
2023-05-12T13:57:18.315Z,101581.13
2023-05-12T13:59:48.079Z,101585.94
2023-05-12T14:02:15.156Z,101587.34
2023-05-12T14:04:42.317Z,101585.63
2023-05-12T14:07:10.071Z,101577.25
2023-05-12T14:09:37.557Z,101576.63
2023-05-12T14:12:05.445Z,101577.88
2023-05-12T14:14:32.604Z,101577.91
2023-05-12T14:16:59.599Z,101582.72
2023-05-12T14:19:26.642Z,101587.84
2023-05-12T14:21:53.662Z,101585.06
2023-05-12T14:24:21.145Z,101585.38
2023-05-12T14:26:48.182Z,101583.56
2023-05-12T14:29:15.245Z,101580.75
2023-05-12T14:31:42.321Z,101583.50
2023-05-12T14:34:09.430Z,101593.47
2023-05-12T14:36:36.506Z,101589.44
2023-05-12T14:39:03.830Z,101589.97
2023-05-12T14:41:30.965Z,101592.44
2023-05-12T14:43:58.342Z,101578.13
2023-05-12T14:46:25.846Z,101591.69
2023-05-12T14:48:53.023Z,101588.34
2023-05-12T14:51:20.156Z,101592.94
2023-05-12T14:53:47.209Z,101591.38
2023-05-12T14:56:14.389Z,101593.94
2023-05-12T14:58:41.379Z,101587.53
2023-05-12T15:01:09.442Z,101586.78
2023-05-12T15:03:44.922Z,101593.19
2023-05-12T15:06:12.820Z,101589.19
2023-05-12T15:08:40.782Z,101592.03
2023-05-12T15:11:07.855Z,101593.50
2023-05-12T15:13:34.961Z,101590.16
2023-05-12T15:16:03.024Z,101598.88
2023-05-12T15:18:30.433Z,101589.78
2023-05-12T15:20:57.564Z,101584.91
2023-05-12T15:23:24.616Z,101587.22
2023-05-12T15:25:51.848Z,101597.03
2023-05-12T15:28:19.029Z,101596.78
2023-05-12T15:30:56.130Z,101601.88
2023-05-12T15:33:23.835Z,101590.28
2023-05-12T15:35:51.137Z,101602.94
2023-05-12T15:38:18.641Z,101594.28
2023-05-12T15:40:47.126Z,101598.50
2023-05-12T15:43:14.474Z,101603.41
2023-05-12T15:45:41.505Z,101605.47
2023-05-12T15:48:09.631Z,101610.59
2023-05-12T15:50:37.278Z,101602.34
2023-05-12T15:53:04.394Z,101613.78
2023-05-12T15:55:32.336Z,101608.03
2023-05-12T15:57:59.878Z,101610.47
2023-05-12T16:00:27.025Z,101602.00
2023-05-12T16:02:54.826Z,101605.72
2023-05-12T16:05:24.148Z,101601.28
2023-05-12T16:07:51.180Z,101597.78
2023-05-12T16:10:18.394Z,101603.41
2023-05-12T16:12:46.148Z,101604.94
2023-05-12T16:15:13.493Z,101606.97
2023-05-12T16:17:40.726Z,101602.91
2023-05-12T16:20:09.235Z,101606.56
2023-05-12T16:22:36.335Z,101615.28
2023-05-12T16:25:04.958Z,101663.19
2023-05-12T16:27:33.631Z,101648.50
2023-05-12T16:30:00.653Z,101661.72
2023-05-12T16:32:27.621Z,101666.81
2023-05-12T16:34:54.850Z,101655.28
2023-05-12T16:37:22.853Z,101662.56
2023-05-12T16:39:49.974Z,101659.09
2023-05-12T16:42:17.048Z,101650.22
2023-05-12T16:44:44.031Z,101638.91
2023-05-12T16:47:11.169Z,101649.41
2023-05-12T16:49:38.238Z,101634.22
2023-05-12T16:52:06.047Z,101639.81
2023-05-12T16:54:33.212Z,101636.13
2023-05-12T16:57:02.298Z,101620.06
2023-05-12T16:59:32.498Z,101612.03
2023-05-12T17:02:00.208Z,101609.91
2023-05-12T17:04:27.449Z,101602.47
2023-05-12T17:06:54.737Z,101617.19
2023-05-12T17:09:23.154Z,101628.19
2023-05-12T17:11:50.554Z,101621.50
2023-05-12T17:14:19.442Z,101627.28
2023-05-12T17:16:46.798Z,101618.97
2023-05-12T17:19:14.404Z,101619.50
2023-05-12T17:21:42.414Z,101619.00
2023-05-12T17:24:09.611Z,101605.13
2023-05-12T17:26:36.665Z,101604.50
2023-05-12T17:29:03.796Z,101609.19
2023-05-12T17:31:30.959Z,101609.34
2023-05-12T17:33:58.081Z,101610.31
2023-05-12T17:36:25.201Z,101613.09
2023-05-12T17:38:52.284Z,101628.28
2023-05-12T17:41:19.662Z,101637.25
2023-05-12T17:43:47.008Z,101645.41
2023-05-12T17:46:14.416Z,101650.00
2023-05-12T17:48:41.588Z,101642.97
2023-05-12T17:51:08.796Z,101651.97
2023-05-12T17:53:35.953Z,101654.84
2023-05-12T17:56:03.121Z,101652.25
2023-05-12T17:58:30.359Z,101647.09
2023-05-12T18:00:57.512Z,101650.00
2023-05-12T18:03:24.824Z,101647.44
2023-05-12T18:05:54.205Z,101638.66
2023-05-12T18:08:21.845Z,101644.03
2023-05-12T18:10:49.139Z,101638.75
2023-05-12T18:13:16.293Z,101650.34
2023-05-12T18:15:43.661Z,101645.00
2023-05-12T18:18:10.973Z,101640.63
2023-05-12T18:20:38.361Z,101644.25
2023-05-12T18:23:05.564Z,101647.84
2023-05-12T18:25:32.600Z,101651.38
2023-05-12T18:27:59.622Z,101646.06
2023-05-12T18:30:26.676Z,101645.22
2023-05-12T18:32:53.985Z,101647.06
2023-05-12T18:35:21.895Z,101648.06
2023-05-12T18:37:49.555Z,101642.84
2023-05-12T18:40:16.935Z,101635.81
2023-05-12T18:42:44.146Z,101631.47
2023-05-12T18:45:11.994Z,101638.59
2023-05-12T18:47:39.444Z,101638.69
2023-05-12T18:50:07.664Z,101636.97
2023-05-12T18:52:34.796Z,101641.47
2023-05-12T18:55:01.902Z,101639.75
2023-05-12T18:57:29.064Z,101646.06
2023-05-12T18:59:56.100Z,101645.19
2023-05-12T19:02:23.140Z,101650.66
2023-05-12T19:04:50.328Z,101648.97
2023-05-12T19:07:17.451Z,101652.59
2023-05-12T19:09:44.528Z,101655.34
2023-05-12T19:12:11.853Z,101659.91
2023-05-12T19:14:40.364Z,101667.06
2023-05-12T19:17:07.802Z,101667.16
2023-05-12T19:19:35.291Z,101672.53
2023-05-12T19:22:04.430Z,101672.63
2023-05-12T19:24:31.582Z,101684.25
2023-05-12T19:26:58.794Z,101689.66
2023-05-12T19:29:26.165Z,101687.13
2023-05-12T19:31:53.716Z,101694.34
2023-05-12T19:34:21.578Z,101697.09
2023-05-12T19:36:48.733Z,101701.59
2023-05-12T19:39:15.785Z,101697.22
2023-05-12T19:41:42.938Z,101695.47
2023-05-12T19:44:10.081Z,101700.00
2023-05-12T19:46:37.197Z,101700.91
2023-05-12T19:49:05.842Z,101708.00
2023-05-12T19:51:33.136Z,101701.03
2023-05-12T19:54:01.928Z,101708.16
2023-05-12T19:56:29.910Z,101714.50
2023-05-12T19:58:56.913Z,101707.53
2023-05-12T20:01:24.304Z,101710.28
2023-05-12T20:03:52.779Z,101720.94
2023-05-12T20:06:20.453Z,101714.78
2023-05-12T20:08:47.456Z,101731.63
2023-05-12T20:11:14.441Z,101728.09
2023-05-12T20:13:41.428Z,101727.25
2023-05-12T20:16:09.061Z,101725.50
2023-05-12T20:18:36.106Z,101739.72
2023-05-12T20:21:03.512Z,101730.00
2023-05-12T20:23:30.520Z,101733.59
2023-05-12T20:25:57.804Z,101739.81
2023-05-12T20:28:25.042Z,101740.75
2023-05-12T20:30:54.713Z,101740.84
2023-05-12T20:33:24.784Z,101742.69
2023-05-12T20:35:54.289Z,101739.22
2023-05-12T20:38:21.353Z,101751.69
2023-05-12T20:40:48.558Z,101744.63
2023-05-12T20:43:15.597Z,101750.91
2023-05-12T20:45:43.074Z,101749.19
2023-05-12T20:48:10.592Z,101751.91
2023-05-12T20:50:37.773Z,101756.38
2023-05-12T20:53:04.988Z,101759.06
2023-05-12T20:55:35.403Z,101762.66
2023-05-12T20:58:02.565Z,101769.78
2023-05-12T21:00:29.607Z,101760.03
2023-05-12T21:02:58.068Z,101767.09
2023-05-12T21:05:25.646Z,101769.78
2023-05-12T21:07:52.646Z,101770.63
2023-05-12T21:10:20.267Z,101769.63
2023-05-12T21:12:47.623Z,101777.56
2023-05-12T21:15:14.863Z,101776.69
2023-05-12T21:17:42.381Z,101767.88
2023-05-12T21:20:11.827Z,101773.19
2023-05-12T21:22:40.844Z,101776.72
2023-05-12T21:25:09.156Z,101773.19
2023-05-12T21:27:40.893Z,101775.84
2023-05-12T21:30:10.246Z,101771.41
2023-05-12T21:32:37.492Z,101770.53
2023-05-12T21:35:05.906Z,101767.00
2023-05-12T21:37:34.359Z,101772.31
2023-05-12T21:40:01.588Z,101780.31
2023-05-12T21:42:28.668Z,101778.53
2023-05-12T21:44:56.067Z,101774.97
2023-05-12T21:47:23.285Z,101775.03
2023-05-12T21:49:55.374Z,101774.16
2023-05-12T21:52:22.942Z,101779.50
2023-05-12T21:54:49.921Z,101780.47
2023-05-12T21:57:17.088Z,101776.09
2023-05-12T21:59:45.026Z,101780.59
2023-05-12T22:02:12.223Z,101783.25
2023-05-12T22:04:39.320Z,101777.09
2023-05-12T22:07:06.360Z,101776.22
2023-05-12T22:09:33.518Z,101780.69
2023-05-12T22:12:00.589Z,101782.50
2023-05-12T22:14:27.660Z,101779.88
2023-05-12T22:16:56.009Z,101779.91
2023-05-12T22:19:23.245Z,101778.19
2023-05-12T22:21:50.844Z,101776.50
2023-05-12T22:24:17.886Z,101784.47
2023-05-12T22:26:44.912Z,101781.88
2023-05-12T22:29:12.054Z,101783.69
2023-05-12T22:31:39.151Z,101781.94
2023-05-12T22:34:06.154Z,101779.34
2023-05-12T22:36:33.343Z,101790.00
2023-05-12T22:39:00.537Z,101790.91
2023-05-12T22:41:28.063Z,101790.97
2023-05-12T22:43:55.068Z,101791.03
2023-05-12T22:46:22.248Z,101787.50
2023-05-12T22:48:50.861Z,101791.97
2023-05-12T22:51:17.918Z,101792.84
2023-05-12T22:53:44.892Z,101796.41
2023-05-12T22:56:11.931Z,101788.50
2023-05-12T22:58:38.896Z,101791.16
2023-05-12T23:01:06.362Z,101787.63
2023-05-12T23:03:33.882Z,101788.56
2023-05-12T23:06:01.107Z,101789.47
2023-05-12T23:08:28.099Z,101791.25
2023-05-12T23:10:55.261Z,101787.72
2023-05-12T23:13:22.385Z,101787.75
2023-05-12T23:15:49.480Z,101784.22
2023-05-12T23:18:16.466Z,101788.63
2023-05-12T23:20:43.463Z,101786.00
2023-05-12T23:23:11.073Z,101794.84
2023-05-12T23:25:38.869Z,101796.59
2023-05-12T23:28:06.577Z,101787.75
2023-05-12T23:30:33.615Z,101795.69
2023-05-12T23:33:00.941Z,101797.44
2023-05-12T23:35:28.247Z,101791.22
2023-05-12T23:37:55.225Z,101792.09
2023-05-12T23:40:22.483Z,101789.44
2023-05-12T23:42:49.839Z,101791.19
2023-05-12T23:45:16.995Z,101789.41
2023-05-12T23:47:44.220Z,101798.22
2023-05-12T23:50:11.395Z,101793.81
2023-05-12T23:52:38.480Z,101803.50
2023-05-12T23:55:06.103Z,101799.06
2023-05-12T23:57:33.119Z,101795.53
